Time;durP1;ratioP1;P1;durP2;ratioP2;P2;SDS_P1;SDS_P2;PMS_P1;PMS_P2;Temp;Humidity;BMP_temperature;BMP_pressure;BME280_temperature;BME280_humidity;BME280_pressure;Samples;Min_cycle;Max_cycle;Signal;HPM_P1;HPM_P2
2022/03/27 00:01:01;;;;;;;7.47;2.70;;;;;;;;;;4989076;28;20073;-81
2022/03/27 00:03:27;;;;;;;6.68;3.45;;;;;;;;;;4978400;28;20029;-81
2022/03/27 00:05:53;;;;;;;14.38;3.75;;;;;;;;;;4980131;28;20096;-81
2022/03/27 00:08:19;;;;;;;7.80;3.53;;;;;;;;;;4986691;28;20030;-81
2022/03/27 00:13:30;;;;;;;6.25;2.47;;;;;;;;;;5002142;28;20052;-80
2022/03/27 00:15:56;;;;;;;7.15;2.88;;;;;;;;;;4979766;28;20092;-81
2022/03/27 00:18:22;;;;;;;7.75;3.10;;;;;;;;;;5001454;28;20169;-81
2022/03/27 00:20:48;;;;;;;7.25;3.22;;;;;;;;;;5001093;28;20081;-81
2022/03/27 00:23:14;;;;;;;10.13;3.10;;;;;;;;;;4998104;28;20576;-80
2022/03/27 00:25:40;;;;;;;11.20;3.40;;;;;;;;;;4984652;28;20168;-81
2022/03/27 00:28:06;;;;;;;11.18;3.78;;;;;;;;;;4983096;28;20037;-80
2022/03/27 00:30:33;;;;;;;9.48;3.40;;;;;;;;;;4994072;28;20030;-81
2022/03/27 00:32:59;;;;;;;10.43;3.95;;;;;;;;;;4994293;28;20049;-81
2022/03/27 00:35:25;;;;;;;11.27;3.95;;;;;;;;;;4998179;28;20030;-81
2022/03/27 00:37:52;;;;;;;9.82;3.65;;;;;;;;;;4997896;28;20057;-80
2022/03/27 00:40:19;;;;;;;9.88;3.03;;;;;;;;;;4983660;28;20022;-81
2022/03/27 00:42:48;;;;;;;9.63;3.13;;;;;;;;;;4996381;28;20030;-81
2022/03/27 00:45:14;;;;;;;12.55;3.60;;;;;;;;;;4984383;28;20029;-80
2022/03/27 00:47:40;;;;;;;10.10;3.78;;;;;;;;;;4998745;28;20669;-81
2022/03/27 00:50:06;;;;;;;7.50;3.70;;;;;;;;;;4983162;28;20057;-80
2022/03/27 00:52:32;;;;;;;8.40;2.97;;;;;;;;;;4997711;28;20025;-81
2022/03/27 00:55:00;;;;;;;18.20;4.75;;;;;;;;;;4975560;28;20461;-80
2022/03/27 00:57:26;;;;;;;13.50;3.75;;;;;;;;;;5001510;28;20026;-80
2022/03/27 00:59:52;;;;;;;11.13;3.55;;;;;;;;;;4982709;28;20473;-81
2022/03/27 01:02:20;;;;;;;12.63;3.47;;;;;;;;;;4982457;28;20514;-80
2022/03/27 01:04:47;;;;;;;14.35;3.88;;;;;;;;;;4981005;28;20493;-80
2022/03/27 01:07:19;;;;;;;18.00;3.80;;;;;;;;;;4979098;28;20030;-80
2022/03/27 01:09:46;;;;;;;10.32;3.67;;;;;;;;;;5000087;28;20485;-80
2022/03/27 01:12:18;;;;;;;10.52;3.70;;;;;;;;;;4974549;28;20609;-81
2022/03/27 01:14:45;;;;;;;9.90;3.88;;;;;;;;;;4993199;28;20042;-81
2022/03/27 01:17:13;;;;;;;10.68;4.22;;;;;;;;;;5001678;28;20026;-80
2022/03/27 01:19:41;;;;;;;12.13;3.95;;;;;;;;;;4998046;28;20084;-81
2022/03/27 01:22:07;;;;;;;16.52;4.22;;;;;;;;;;4998199;28;20048;-81
2022/03/27 01:24:33;;;;;;;11.00;3.72;;;;;;;;;;4997236;28;20065;-80
2022/03/27 01:26:59;;;;;;;11.80;4.28;;;;;;;;;;4982751;28;20045;-81
2022/03/27 01:29:25;;;;;;;10.65;4.00;;;;;;;;;;5002916;28;20571;-81
2022/03/27 01:31:53;;;;;;;11.48;3.90;;;;;;;;;;5001149;28;20037;-80
2022/03/27 01:34:19;;;;;;;12.55;3.47;;;;;;;;;;4983033;28;20037;-80
2022/03/27 01:36:45;;;;;;;7.40;4.03;;;;;;;;;;4983598;28;20049;-81
2022/03/27 01:39:13;;;;;;;12.07;4.35;;;;;;;;;;5000488;28;20409;-81
2022/03/27 01:41:39;;;;;;;7.65;3.85;;;;;;;;;;4982564;28;20033;-81
2022/03/27 01:44:07;;;;;;;18.67;5.25;;;;;;;;;;4997807;28;20537;-81
2022/03/27 01:46:34;;;;;;;14.93;4.38;;;;;;;;;;4977226;28;20066;-81
2022/03/27 01:49:00;;;;;;;21.58;4.15;;;;;;;;;;5001544;28;20080;-81
2022/03/27 01:51:27;;;;;;;13.48;4.45;;;;;;;;;;4986305;28;20033;-81
2022/03/27 01:53:54;;;;;;;14.18;4.30;;;;;;;;;;5002619;28;20029;-81
2022/03/27 01:56:20;;;;;;;18.60;5.07;;;;;;;;;;4986525;28;20045;-81
2022/03/27 01:58:46;;;;;;;10.48;3.83;;;;;;;;;;4986012;28;20034;-81
2022/03/27 02:01:12;;;;;;;11.32;4.75;;;;;;;;;;4985692;28;20516;-81
2022/03/27 02:03:38;;;;;;;10.43;4.80;;;;;;;;;;4986108;28;20037;-81
2022/03/27 02:06:05;;;;;;;21.30;6.25;;;;;;;;;;4989690;28;20030;-80
2022/03/27 02:08:34;;;;;;;19.17;4.40;;;;;;;;;;4983278;28;20567;-81
2022/03/27 02:11:01;;;;;;;10.63;4.20;;;;;;;;;;5001206;28;20065;-81
2022/03/27 02:13:29;;;;;;;11.80;4.72;;;;;;;;;;4986072;28;20069;-81
2022/03/27 02:15:57;;;;;;;11.00;4.63;;;;;;;;;;5004500;28;20232;-81
2022/03/27 02:18:24;;;;;;;12.05;4.38;;;;;;;;;;4984028;28;20493;-81
2022/03/27 02:20:50;;;;;;;11.32;4.35;;;;;;;;;;5004906;28;20037;-81
2022/03/27 02:23:16;;;;;;;9.63;4.60;;;;;;;;;;5003238;28;20536;-81
2022/03/27 02:25:42;;;;;;;13.88;4.85;;;;;;;;;;5002738;28;20124;-81
2022/03/27 02:28:09;;;;;;;10.15;3.92;;;;;;;;;;4999913;28;20512;-81
2022/03/27 02:30:35;;;;;;;15.15;4.78;;;;;;;;;;5002557;28;20034;-81
2022/03/27 02:33:05;;;;;;;17.35;4.97;;;;;;;;;;5000582;28;20132;-81
2022/03/27 02:35:31;;;;;;;25.13;5.20;;;;;;;;;;4996877;28;20200;-80
2022/03/27 02:37:57;;;;;;;11.05;4.57;;;;;;;;;;4970463;28;20043;-81
2022/03/27 02:40:23;;;;;;;10.40;4.22;;;;;;;;;;4964556;28;20354;-81
2022/03/27 02:42:49;;;;;;;16.65;4.88;;;;;;;;;;4980819;28;20034;-81
2022/03/27 02:45:15;;;;;;;11.73;4.82;;;;;;;;;;4966079;28;20061;-81
2022/03/27 02:47:41;;;;;;;12.52;5.43;;;;;;;;;;4981961;28;20101;-81
2022/03/27 02:50:08;;;;;;;13.43;4.97;;;;;;;;;;4962676;28;20443;-81
2022/03/27 02:52:34;;;;;;;19.70;5.20;;;;;;;;;;4978603;28;20098;-81
2022/03/27 02:55:00;;;;;;;20.60;6.65;;;;;;;;;;4980060;28;20034;-80
2022/03/27 02:57:26;;;;;;;15.25;4.70;;;;;;;;;;4981616;28;20709;-81
2022/03/27 02:59:52;;;;;;;20.50;6.20;;;;;;;;;;4960988;28;20512;-81
2022/03/27 03:02:19;;;;;;;23.45;6.85;;;;;;;;;;4979463;28;20074;-81
2022/03/27 03:04:45;;;;;;;20.10;6.85;;;;;;;;;;4982469;28;20044;-81
2022/03/27 03:07:11;;;;;;;26.17;6.05;;;;;;;;;;4965372;28;20039;-81
2022/03/27 03:09:38;;;;;;;21.23;6.82;;;;;;;;;;4979618;28;20027;-81
2022/03/27 03:12:05;;;;;;;25.67;7.85;;;;;;;;;;4984793;28;20126;-81
2022/03/27 03:14:33;;;;;;;16.55;5.85;;;;;;;;;;4966979;28;20026;-81
2022/03/27 03:17:00;;;;;;;13.70;5.90;;;;;;;;;;4964979;28;20040;-81
2022/03/27 03:19:26;;;;;;;21.25;5.90;;;;;;;;;;4963306;28;20081;-81
2022/03/27 03:21:52;;;;;;;17.42;5.88;;;;;;;;;;4979471;28;20486;-81
2022/03/27 03:24:18;;;;;;;40.28;6.53;;;;;;;;;;4964360;28;20025;-82
2022/03/27 03:26:44;;;;;;;22.65;5.75;;;;;;;;;;4967918;28;20643;-80
2022/03/27 03:29:14;;;;;;;28.00;6.32;;;;;;;;;;4963876;28;20498;-81
2022/03/27 03:31:40;;;;;;;36.92;7.10;;;;;;;;;;4986583;28;20453;-80
2022/03/27 03:34:06;;;;;;;38.17;6.20;;;;;;;;;;4964251;28;20038;-81
2022/03/27 03:36:44;;;;;;;34.88;5.32;;;;;;;;;;4704997;28;8034034;-81
2022/03/27 03:39:10;;;;;;;17.58;4.90;;;;;;;;;;4983959;28;20038;-81
2022/03/27 03:41:37;;;;;;;14.15;4.80;;;;;;;;;;4983826;28;20125;-81
2022/03/27 03:44:03;;;;;;;24.08;4.93;;;;;;;;;;4985881;28;20025;-81
2022/03/27 03:46:29;;;;;;;18.63;6.28;;;;;;;;;;4986448;28;20041;-81
2022/03/27 03:48:55;;;;;;;22.73;5.30;;;;;;;;;;4985672;28;20034;-81
2022/03/27 03:51:21;;;;;;;14.35;4.60;;;;;;;;;;4980105;28;20049;-81
2022/03/27 03:53:47;;;;;;;17.13;5.40;;;;;;;;;;4981591;28;20489;-81
2022/03/27 03:56:14;;;;;;;19.90;5.38;;;;;;;;;;4981398;28;20367;-81
2022/03/27 03:58:40;;;;;;;12.40;5.35;;;;;;;;;;5003261;28;20029;-81
2022/03/27 04:01:06;;;;;;;12.63;4.50;;;;;;;;;;4986382;28;20643;-81
2022/03/27 04:03:32;;;;;;;15.00;4.82;;;;;;;;;;4987289;28;20022;-81
2022/03/27 04:05:59;;;;;;;12.27;4.70;;;;;;;;;;4980860;28;20026;-81
2022/03/27 04:08:25;;;;;;;39.15;5.78;;;;;;;;;;4987622;28;20642;-81
2022/03/27 04:10:51;;;;;;;15.63;4.85;;;;;;;;;;4999191;28;20026;-81
2022/03/27 04:13:18;;;;;;;15.25;4.88;;;;;;;;;;5003399;28;20033;-81
2022/03/27 04:15:44;;;;;;;12.55;4.25;;;;;;;;;;4980310;28;20026;-81
2022/03/27 04:18:11;;;;;;;9.80;4.10;;;;;;;;;;5001550;28;20041;-81
2022/03/27 04:20:37;;;;;;;9.95;3.70;;;;;;;;;;4999459;28;20033;-81
2022/03/27 04:23:03;;;;;;;17.98;4.68;;;;;;;;;;4995440;28;20030;-80
2022/03/27 04:25:29;;;;;;;16.10;4.88;;;;;;;;;;4999575;28;20034;-81
2022/03/27 04:27:55;;;;;;;20.50;5.05;;;;;;;;;;5000052;28;20026;-81
2022/03/27 04:30:21;;;;;;;13.00;4.82;;;;;;;;;;4983873;28;20117;-81
2022/03/27 04:32:48;;;;;;;17.30;4.72;;;;;;;;;;5000628;28;20531;-81
2022/03/27 04:35:14;;;;;;;17.23;4.60;;;;;;;;;;4999670;28;20157;-81
2022/03/27 04:37:53;;;;;;;13.57;4.43;;;;;;;;;;4981181;28;20414;-81
2022/03/27 04:40:20;;;;;;;15.63;4.45;;;;;;;;;;4979242;28;20030;-81
2022/03/27 04:42:46;;;;;;;14.38;3.78;;;;;;;;;;4961881;28;20035;-80
2022/03/27 04:45:12;;;;;;;15.57;4.13;;;;;;;;;;4982118;28;20034;-80
2022/03/27 04:47:39;;;;;;;16.83;4.95;;;;;;;;;;4966398;28;20478;-81
2022/03/27 04:50:05;;;;;;;11.65;3.83;;;;;;;;;;4962171;28;20884;-81
2022/03/27 04:52:31;;;;;;;8.70;3.53;;;;;;;;;;4983190;28;20651;-81
2022/03/27 04:54:58;;;;;;;9.75;3.50;;;;;;;;;;4983115;28;20050;-81
2022/03/27 04:57:24;;;;;;;13.43;3.60;;;;;;;;;;4963841;28;20023;-81
2022/03/27 04:59:50;;;;;;;12.35;3.67;;;;;;;;;;4977810;28;20112;-81
2022/03/27 05:02:17;;;;;;;18.90;3.83;;;;;;;;;;4963709;28;20180;-81
2022/03/27 05:04:44;;;;;;;24.45;4.57;;;;;;;;;;4985561;28;20378;-81
2022/03/27 05:07:10;;;;;;;13.10;3.92;;;;;;;;;;4978582;28;20031;-80
2022/03/27 05:09:36;;;;;;;13.30;3.58;;;;;;;;;;4984305;28;20042;-81
2022/03/27 05:12:02;;;;;;;15.15;3.58;;;;;;;;;;4964638;28;20034;-81
2022/03/27 05:14:28;;;;;;;15.90;3.55;;;;;;;;;;4967046;28;20698;-81
2022/03/27 05:16:55;;;;;;;18.15;3.22;;;;;;;;;;4982169;28;20055;-81
2022/03/27 05:19:21;;;;;;;13.70;3.38;;;;;;;;;;4980343;28;20669;-81
2022/03/27 05:21:47;;;;;;;10.00;3.22;;;;;;;;;;4968022;28;20045;-81
2022/03/27 05:24:13;;;;;;;19.08;4.43;;;;;;;;;;4979010;28;20024;-82
2022/03/27 05:26:39;;;;;;;23.08;4.30;;;;;;;;;;4963836;28;20027;-81
2022/03/27 05:29:08;;;;;;;24.17;4.15;;;;;;;;;;4980920;28;20097;-81
2022/03/27 05:31:34;;;;;;;16.30;3.72;;;;;;;;;;4964375;28;20556;-81
2022/03/27 05:34:00;;;;;;;23.00;3.95;;;;;;;;;;4963908;28;20034;-81
2022/03/27 05:36:26;;;;;;;24.58;4.30;;;;;;;;;;4965616;28;20031;-81
2022/03/27 05:38:53;;;;;;;13.73;3.88;;;;;;;;;;4975088;28;20050;-81
2022/03/27 05:41:19;;;;;;;21.75;4.63;;;;;;;;;;4998601;28;20046;-81
2022/03/27 05:43:45;;;;;;;26.17;3.97;;;;;;;;;;4981181;28;20138;-81
2022/03/27 05:46:11;;;;;;;22.40;4.30;;;;;;;;;;4982357;28;20117;-81
2022/03/27 05:48:37;;;;;;;18.52;4.05;;;;;;;;;;4997663;28;20061;-81
2022/03/27 05:51:03;;;;;;;33.35;5.38;;;;;;;;;;4981125;28;20147;-81
2022/03/27 05:53:29;;;;;;;24.48;4.30;;;;;;;;;;4974915;28;20034;-81
2022/03/27 05:55:59;;;;;;;30.88;5.43;;;;;;;;;;4999692;28;20057;-81
2022/03/27 05:58:26;;;;;;;29.05;4.80;;;;;;;;;;4981189;28;20522;-81
2022/03/27 06:00:53;;;;;;;33.10;5.93;;;;;;;;;;4999110;28;20493;-81
2022/03/27 06:03:19;;;;;;;43.58;6.28;;;;;;;;;;4980697;28;20034;-81
2022/03/27 06:05:45;;;;;;;49.10;6.05;;;;;;;;;;4986519;28;20026;-80
2022/03/27 06:08:11;;;;;;;54.95;6.05;;;;;;;;;;4981941;28;20034;-80
2022/03/27 06:10:39;;;;;;;47.83;5.82;;;;;;;;;;4979530;28;20104;-81
2022/03/27 06:13:05;;;;;;;44.28;7.10;;;;;;;;;;4996355;28;20046;-80
2022/03/27 06:15:32;;;;;;;42.30;5.68;;;;;;;;;;4985959;28;20037;-80
2022/03/27 06:17:58;;;;;;;41.00;6.25;;;;;;;;;;4991380;28;20100;-80
2022/03/27 06:20:26;;;;;;;39.90;6.55;;;;;;;;;;4987994;28;20026;-81
2022/03/27 06:22:53;;;;;;;46.45;6.82;;;;;;;;;;5002717;28;20088;-81
2022/03/27 06:25:21;;;;;;;47.53;6.75;;;;;;;;;;5004665;28;20086;-81
2022/03/27 06:27:51;;;;;;;48.95;6.35;;;;;;;;;;4999367;28;20654;-80
2022/03/27 06:30:18;;;;;;;37.15;7.00;;;;;;;;;;5002931;28;20121;-81
2022/03/27 06:32:45;;;;;;;59.35;7.68;;;;;;;;;;4987305;28;20049;-80
2022/03/27 06:35:12;;;;;;;46.78;6.35;;;;;;;;;;5004454;28;20026;-80
2022/03/27 06:37:38;;;;;;;55.50;8.30;;;;;;;;;;4986178;28;20516;-80
2022/03/27 06:40:05;;;;;;;48.90;6.53;;;;;;;;;;5004745;28;21309;-81
2022/03/27 06:42:32;;;;;;;44.92;6.55;;;;;;;;;;4999950;28;20037;-81
2022/03/27 06:44:58;;;;;;;56.75;7.65;;;;;;;;;;4994802;28;20409;-80
2022/03/27 06:47:24;;;;;;;47.45;7.07;;;;;;;;;;4985729;28;20096;-81
2022/03/27 06:49:51;;;;;;;47.20;6.45;;;;;;;;;;4985957;28;20444;-81
2022/03/27 06:52:18;;;;;;;43.92;6.80;;;;;;;;;;4986713;28;20066;-81
2022/03/27 06:54:44;;;;;;;48.72;7.25;;;;;;;;;;4998645;28;20490;-81
2022/03/27 06:57:11;;;;;;;56.83;7.90;;;;;;;;;;4979418;28;20105;-81
2022/03/27 07:05:07;;;;;;;50.33;7.28;;;;;;;;;;4996007;28;20057;-81
2022/03/27 07:07:34;;;;;;;63.90;7.72;;;;;;;;;;4982061;28;20410;-81
2022/03/27 07:10:00;;;;;;;55.03;7.65;;;;;;;;;;4998114;28;20045;-81
2022/03/27 07:12:26;;;;;;;51.75;7.15;;;;;;;;;;5004900;28;20045;-81
2022/03/27 07:14:52;;;;;;;47.85;5.93;;;;;;;;;;5001381;28;20520;-81
2022/03/27 07:17:19;;;;;;;53.17;7.82;;;;;;;;;;4988215;28;20037;-82
2022/03/27 07:19:45;;;;;;;47.33;8.48;;;;;;;;;;5000952;28;20778;-81
2022/03/27 07:22:11;;;;;;;49.85;7.47;;;;;;;;;;4987921;28;20091;-81
2022/03/27 07:24:37;;;;;;;42.50;6.82;;;;;;;;;;5001835;28;20177;-80
2022/03/27 07:27:04;;;;;;;57.88;8.38;;;;;;;;;;5000989;28;20342;-81
2022/03/27 07:29:30;;;;;;;52.50;6.95;;;;;;;;;;4986120;28;20042;-81
2022/03/27 07:31:57;;;;;;;44.35;6.88;;;;;;;;;;5001178;23;20046;-91
2022/03/27 07:34:23;;;;;;;37.17;6.35;;;;;;;;;;4993889;28;20034;-89
2022/03/27 07:36:49;;;;;;;28.83;6.35;;;;;;;;;;4988633;28;20042;-90
2022/03/27 07:39:15;;;;;;;40.83;6.75;;;;;;;;;;4989926;28;20049;-90
2022/03/27 07:41:41;;;;;;;47.20;6.95;;;;;;;;;;4986341;28;20494;-90
2022/03/27 07:44:08;;;;;;;32.40;6.70;;;;;;;;;;4989536;28;20462;-90
2022/03/27 07:46:34;;;;;;;42.05;7.18;;;;;;;;;;4988035;28;20030;-91
2022/03/27 07:49:00;;;;;;;40.75;6.47;;;;;;;;;;5008120;28;20583;-90
2022/03/27 07:51:26;;;;;;;25.15;5.88;;;;;;;;;;4986733;28;20035;-92
2022/03/27 07:53:52;;;;;;;35.03;6.47;;;;;;;;;;4994210;28;20033;-91
2022/03/27 07:56:19;;;;;;;43.13;6.72;;;;;;;;;;4990634;28;20034;-90
2022/03/27 07:58:45;;;;;;;39.83;6.05;;;;;;;;;;4992443;28;20532;-92
2022/03/27 08:01:15;;;;;;;45.95;7.55;;;;;;;;;;4986521;28;20524;-89
2022/03/27 08:03:41;;;;;;;38.05;6.07;;;;;;;;;;4988370;28;20529;-89
2022/03/27 08:06:07;;;;;;;47.88;7.35;;;;;;;;;;4987865;28;20018;-92
2022/03/27 08:08:34;;;;;;;38.58;7.97;;;;;;;;;;4973884;28;20410;-91
2022/03/27 08:11:00;;;;;;;34.33;6.10;;;;;;;;;;4987321;28;20554;-92
2022/03/27 08:13:26;;;;;;;28.25;6.53;;;;;;;;;;4989495;28;20042;-91
2022/03/27 08:15:53;;;;;;;32.20;5.53;;;;;;;;;;4988329;28;20107;-90
2022/03/27 08:18:19;;;;;;;40.60;6.50;;;;;;;;;;4977981;28;20050;-90
2022/03/27 08:20:45;;;;;;;29.65;6.55;;;;;;;;;;4966363;28;20038;-90
2022/03/27 08:23:11;;;;;;;27.33;5.72;;;;;;;;;;4958323;28;20027;-91
2022/03/27 08:28:22;;;;;;;24.08;5.38;;;;;;;;;;4984745;28;20120;-92
2022/03/27 08:30:49;;;;;;;37.03;6.35;;;;;;;;;;4966999;28;20046;-91
2022/03/27 08:33:15;;;;;;;48.72;7.10;;;;;;;;;;4969815;28;20156;-91
2022/03/27 08:35:42;;;;;;;30.50;7.18;;;;;;;;;;4963881;28;20035;-91
2022/03/27 08:38:09;;;;;;;36.80;6.57;;;;;;;;;;4979036;28;20509;-92
2022/03/27 08:40:38;;;;;;;32.67;5.95;;;;;;;;;;4979594;28;20039;-90
2022/03/27 08:43:09;;;;;;;24.30;5.95;;;;;;;;;;4967785;28;20041;-91
2022/03/27 08:45:35;;;;;;;25.42;6.20;;;;;;;;;;4967403;28;20031;-91
2022/03/27 08:48:02;;;;;;;34.85;6.68;;;;;;;;;;4965964;28;20077;-92
2022/03/27 08:50:29;;;;;;;28.52;6.38;;;;;;;;;;4961444;28;20031;-92
2022/03/27 08:52:59;;;;;;;29.77;6.15;;;;;;;;;;4981968;28;20439;-90
2022/03/27 08:55:25;;;;;;;29.25;5.47;;;;;;;;;;4967716;28;20545;-93
2022/03/27 08:57:56;;;;;;;24.88;6.22;;;;;;;;;;4966737;28;20035;-91
2022/03/27 09:00:33;;;;;;;31.25;7.38;;;;;;;;;;4966630;28;20093;-90
2022/03/27 09:03:01;;;;;;;34.58;6.78;;;;;;;;;;4969299;28;20066;-90
2022/03/27 09:05:27;;;;;;;30.77;5.95;;;;;;;;;;4964591;28;20026;-91
2022/03/27 09:07:54;;;;;;;34.63;6.47;;;;;;;;;;4963190;28;20034;-92
2022/03/27 09:10:21;;;;;;;37.72;5.65;;;;;;;;;;4965473;28;20034;-91
2022/03/27 09:12:48;;;;;;;32.60;6.35;;;;;;;;;;4965995;28;20054;-91
2022/03/27 09:15:17;;;;;;;34.97;6.13;;;;;;;;;;4965541;28;20038;-90
2022/03/27 09:18:02;;;;;;;31.33;6.95;;;;;;;;;;4964211;28;20027;-91
2022/03/27 09:20:31;;;;;;;37.75;6.32;;;;;;;;;;4967013;28;20144;-92
2022/03/27 09:23:05;;;;;;;25.17;5.82;;;;;;;;;;4964084;28;20570;-91
2022/03/27 09:25:43;;;;;;;31.73;7.00;;;;;;;;;;4976784;28;20065;-91
2022/03/27 09:28:09;;;;;;;34.33;6.63;;;;;;;;;;4968616;28;20556;-90
2022/03/27 09:30:36;;;;;;;33.80;7.50;;;;;;;;;;4966777;28;20034;-91
2022/03/27 09:33:09;;;;;;;26.98;6.22;;;;;;;;;;4970314;28;20042;-93
2022/03/27 09:35:37;;;;;;;33.42;7.28;;;;;;;;;;4966734;28;20030;-93
2022/03/27 09:38:11;;;;;;;24.70;7.10;;;;;;;;;;4954109;28;20162;-91
2022/03/27 09:40:38;;;;;;;32.10;7.47;;;;;;;;;;4954751;28;20022;-91
2022/03/27 09:43:11;;;;;;;32.13;5.97;;;;;;;;;;4958270;28;20422;-92
2022/03/27 09:45:38;;;;;;;30.08;6.90;;;;;;;;;;4979150;28;20482;-92
2022/03/27 09:48:11;;;;;;;31.27;6.00;;;;;;;;;;4972877;28;20382;-91
2022/03/27 09:50:38;;;;;;;28.50;6.20;;;;;;;;;;4972790;28;20073;-91
2022/03/27 09:53:22;;;;;;;34.67;6.50;;;;;;;;;;4970386;28;20037;-90
2022/03/27 09:55:55;;;;;;;27.85;6.18;;;;;;;;;;4975710;28;20026;-92
2022/03/27 09:58:37;;;;;;;19.60;6.10;;;;;;;;;;4971367;28;20030;-90
2022/03/27 10:01:08;;;;;;;26.42;6.13;;;;;;;;;;4988376;28;20092;-92
2022/03/27 10:03:34;;;;;;;28.27;5.80;;;;;;;;;;4986923;28;20586;-91
2022/03/27 10:06:02;;;;;;;29.50;6.53;;;;;;;;;;4973152;28;20154;-90
2022/03/27 10:08:28;;;;;;;23.60;5.00;;;;;;;;;;4974228;28;20049;-91
2022/03/27 10:10:55;;;;;;;27.77;6.22;;;;;;;;;;4972208;28;20037;-91
2022/03/27 10:13:23;;;;;;;32.55;6.28;;;;;;;;;;4969338;28;20046;-90
2022/03/27 10:15:52;;;;;;;27.80;6.55;;;;;;;;;;4970053;28;20434;-90
2022/03/27 10:18:20;;;;;;;39.60;7.15;;;;;;;;;;4970195;28;20042;-91
2022/03/27 10:20:48;;;;;;;25.52;7.43;;;;;;;;;;4989230;28;20030;-90
2022/03/27 10:23:21;;;;;;;28.13;5.70;;;;;;;;;;4966469;28;20030;-90
2022/03/27 10:25:50;;;;;;;34.15;6.88;;;;;;;;;;4967949;28;20088;-91
2022/03/27 10:28:18;;;;;;;23.02;6.88;;;;;;;;;;4968835;28;20125;-88
2022/03/27 10:30:51;;;;;;;25.40;5.57;;;;;;;;;;4962927;28;20034;-89
2022/03/27 10:33:26;;;;;;;28.58;6.63;;;;;;;;;;4980017;28;20054;-87
2022/03/27 10:35:58;;;;;;;27.38;6.07;;;;;;;;;;4979486;28;20398;-88
2022/03/27 10:38:38;;;;;;;25.83;5.78;;;;;;;;;;4973740;28;20053;-88
2022/03/27 10:41:12;;;;;;;36.05;6.75;;;;;;;;;;4970032;28;20022;-87
2022/03/27 10:43:57;;;;;;;24.80;6.10;;;;;;;;;;4969871;28;20034;-87
2022/03/27 10:46:25;;;;;;;25.10;6.25;;;;;;;;;;4983646;28;21092;-88
2022/03/27 10:48:52;;;;;;;26.90;5.80;;;;;;;;;;4966259;28;20058;-87
2022/03/27 10:51:29;;;;;;;21.40;5.57;;;;;;;;;;4981317;28;20045;-88
2022/03/27 10:54:06;;;;;;;28.13;5.82;;;;;;;;;;4968551;28;20034;-88
2022/03/27 10:56:53;;;;;;;22.60;5.57;;;;;;;;;;4966054;28;20140;-85
2022/03/27 10:59:24;;;;;;;25.95;5.90;;;;;;;;;;4963729;28;21550;-87
2022/03/27 11:01:51;;;;;;;24.02;6.20;;;;;;;;;;4970662;28;20026;-87
2022/03/27 11:04:18;;;;;;;23.38;6.22;;;;;;;;;;4961162;28;20045;-89
2022/03/27 11:06:48;;;;;;;18.55;4.85;;;;;;;;;;4969050;28;20065;-89
2022/03/27 11:09:31;;;;;;;27.83;5.30;;;;;;;;;;4978291;28;20030;-90
2022/03/27 11:12:04;;;;;;;26.33;5.93;;;;;;;;;;4969662;28;20031;-90
2022/03/27 11:14:49;;;;;;;24.33;5.30;;;;;;;;;;4986357;28;20041;-90
2022/03/27 11:17:15;;;;;;;20.15;5.47;;;;;;;;;;4972957;28;20509;-89
2022/03/27 11:19:46;;;;;;;22.20;4.95;;;;;;;;;;4969492;28;20046;-89
2022/03/27 11:22:31;;;;;;;21.30;4.95;;;;;;;;;;4972917;28;20037;-89
2022/03/27 11:25:16;;;;;;;25.25;5.10;;;;;;;;;;4964411;28;20386;-90
2022/03/27 11:28:00;;;;;;;22.17;6.07;;;;;;;;;;4969469;28;20042;-88
2022/03/27 11:30:26;;;;;;;18.73;5.00;;;;;;;;;;4968198;28;20216;-87
2022/03/27 11:33:11;;;;;;;15.68;4.47;;;;;;;;;;4969964;28;20085;-89
2022/03/27 11:35:38;;;;;;;14.25;3.92;;;;;;;;;;4982067;28;20262;-89
2022/03/27 11:38:39;;;;;;;15.02;4.70;;;;;;;;;;4966660;28;20034;-87
2022/03/27 11:41:24;;;;;;;30.75;5.93;;;;;;;;;;4903917;29;20036;-87
2022/03/27 11:43:50;;;;;;;20.40;5.43;;;;;;;;;;4953341;28;20035;-87
2022/03/27 11:46:35;;;;;;;18.13;4.45;;;;;;;;;;4955491;28;20548;-87
2022/03/27 11:49:01;;;;;;;23.20;5.20;;;;;;;;;;4977811;28;20900;-87
2022/03/27 11:51:28;;;;;;;18.25;4.88;;;;;;;;;;4979780;28;20049;-89
2022/03/27 11:53:55;;;;;;;18.30;4.80;;;;;;;;;;4961471;28;20546;-87
2022/03/27 11:56:24;;;;;;;17.23;4.50;;;;;;;;;;4963825;28;20463;-87
2022/03/27 11:59:03;;;;;;;20.48;4.75;;;;;;;;;;4967155;28;20092;-89
2022/03/27 12:01:31;;;;;;;19.10;3.97;;;;;;;;;;4960683;28;20037;-87
2022/03/27 12:03:58;;;;;;;15.88;5.25;;;;;;;;;;4981647;28;20022;-88
2022/03/27 12:06:27;;;;;;;17.25;3.83;;;;;;;;;;4959516;28;20041;-87
2022/03/27 12:08:53;;;;;;;18.30;4.50;;;;;;;;;;4976938;28;20105;-87
2022/03/27 12:11:23;;;;;;;21.00;4.45;;;;;;;;;;4963455;28;20425;-88
2022/03/27 12:13:49;;;;;;;21.35;4.13;;;;;;;;;;4963668;28;20117;-88
2022/03/27 12:16:23;;;;;;;15.48;3.90;;;;;;;;;;4979793;28;20041;-87
2022/03/27 12:18:49;;;;;;;15.90;4.53;;;;;;;;;;4964604;28;20658;-88
2022/03/27 12:21:17;;;;;;;16.50;4.40;;;;;;;;;;4964339;28;20529;-87
2022/03/27 12:23:51;;;;;;;18.60;4.38;;;;;;;;;;4962274;28;20027;-87
2022/03/27 12:31:55;;;;;;;11.77;3.50;;;;;;;;;;4977982;28;20473;-87
2022/03/27 12:34:27;;;;;;;14.32;3.72;;;;;;;;;;4976264;28;20046;-89
2022/03/27 12:37:16;;;;;;;12.18;3.80;;;;;;;;;;4959884;28;20065;-88
2022/03/27 12:39:48;;;;;;;19.33;4.38;;;;;;;;;;4962265;28;20061;-89
2022/03/27 12:42:35;;;;;;;14.38;3.97;;;;;;;;;;4966775;28;20219;-88
2022/03/27 12:45:17;;;;;;;13.98;3.63;;;;;;;;;;4981064;28;20104;-87
2022/03/27 12:47:43;;;;;;;16.05;3.63;;;;;;;;;;4979450;28;20026;-88
2022/03/27 12:50:10;;;;;;;19.27;4.57;;;;;;;;;;4960522;28;20034;-87
2022/03/27 12:52:47;;;;;;;13.75;3.63;;;;;;;;;;4959758;28;20071;-89
2022/03/27 12:55:13;;;;;;;14.85;4.03;;;;;;;;;;4974956;28;20426;-86
2022/03/27 12:57:50;;;;;;;14.23;3.40;;;;;;;;;;4959586;28;20034;-87
2022/03/27 13:00:16;;;;;;;15.35;3.50;;;;;;;;;;4960985;28;20902;-87
2022/03/27 13:02:42;;;;;;;19.63;4.47;;;;;;;;;;4978809;28;20084;-87
2022/03/27 13:05:08;;;;;;;20.17;4.43;;;;;;;;;;4962598;28;20154;-87
2022/03/27 13:07:54;;;;;;;16.48;4.22;;;;;;;;;;4964942;28;20041;-89
2022/03/27 13:10:21;;;;;;;24.45;4.45;;;;;;;;;;4977985;28;20045;-87
2022/03/27 13:12:47;;;;;;;15.20;4.03;;;;;;;;;;4961591;28;20086;-88
2022/03/27 13:15:13;;;;;;;16.67;3.53;;;;;;;;;;4955836;28;20151;-88
2022/03/27 13:17:39;;;;;;;16.70;4.10;;;;;;;;;;4960181;28;20033;-87
2022/03/27 13:20:05;;;;;;;18.67;4.30;;;;;;;;;;4966096;28;20022;-87
2022/03/27 13:22:31;;;;;;;12.55;3.88;;;;;;;;;;4956945;28;20061;-90
2022/03/27 13:24:57;;;;;;;20.13;4.38;;;;;;;;;;4993636;28;20542;-88
2022/03/27 13:27:23;;;;;;;15.35;4.25;;;;;;;;;;4972183;28;20090;-88
2022/03/27 13:29:49;;;;;;;37.20;5.05;;;;;;;;;;4970531;28;20097;-88
2022/03/27 13:32:15;;;;;;;24.27;4.93;;;;;;;;;;4963684;28;20602;-90
2022/03/27 13:34:41;;;;;;;21.70;4.22;;;;;;;;;;4964928;28;20129;-89
2022/03/27 13:37:07;;;;;;;19.80;4.00;;;;;;;;;;4968825;28;20061;-88
2022/03/27 13:39:34;;;;;;;17.50;5.25;;;;;;;;;;4961597;28;20047;-91
2022/03/27 13:44:44;;;;;;;12.38;3.20;;;;;;;;;;4988015;28;20134;-90
2022/03/27 13:47:11;;;;;;;23.98;5.03;;;;;;;;;;4972280;28;20148;-91
2022/03/27 13:49:38;;;;;;;18.50;4.07;;;;;;;;;;4963550;28;20026;-90
2022/03/27 13:52:04;;;;;;;19.13;4.63;;;;;;;;;;4968882;28;20038;-91
2022/03/27 13:54:30;;;;;;;23.35;4.78;;;;;;;;;;4970753;28;20056;-88
2022/03/27 13:56:56;;;;;;;22.27;5.55;;;;;;;;;;4971579;28;20050;-90
2022/03/27 13:59:23;;;;;;;17.60;4.15;;;;;;;;;;4969116;28;20089;-89
2022/03/27 14:01:51;;;;;;;26.23;4.60;;;;;;;;;;4966264;28;20045;-89
2022/03/27 14:04:17;;;;;;;14.60;4.00;;;;;;;;;;4965950;28;20085;-88
2022/03/27 14:06:44;;;;;;;13.95;4.72;;;;;;;;;;4963164;28;20026;-88
2022/03/27 14:09:10;;;;;;;27.08;4.78;;;;;;;;;;4969112;28;20047;-90
2022/03/27 14:11:40;;;;;;;19.83;4.50;;;;;;;;;;4982536;28;20034;-90
2022/03/27 14:14:06;;;;;;;16.15;3.67;;;;;;;;;;4965396;28;20054;-90
2022/03/27 14:16:32;;;;;;;20.65;5.28;;;;;;;;;;4975887;28;20125;-89
2022/03/27 14:18:58;;;;;;;15.07;3.88;;;;;;;;;;4970909;28;20057;-89
2022/03/27 14:21:24;;;;;;;26.92;4.43;;;;;;;;;;4986087;28;20046;-89
2022/03/27 14:23:50;;;;;;;19.63;4.78;;;;;;;;;;4968979;28;20037;-90
2022/03/27 14:26:17;;;;;;;22.25;5.20;;;;;;;;;;4975478;28;20117;-90
2022/03/27 14:28:43;;;;;;;19.70;4.82;;;;;;;;;;4970169;28;20056;-90
2022/03/27 14:31:16;;;;;;;22.00;4.50;;;;;;;;;;4981558;28;20041;-93
2022/03/27 14:33:47;;;;;;;16.63;3.90;;;;;;;;;;4980118;28;20049;-93
2022/03/27 14:36:17;;;;;;;24.02;4.88;;;;;;;;;;4976375;28;20031;-92
2022/03/27 14:38:43;;;;;;;18.27;4.68;;;;;;;;;;4985827;28;20577;-93
2022/03/27 14:41:09;;;;;;;14.30;4.30;;;;;;;;;;4985685;28;20022;-92
2022/03/27 14:43:35;;;;;;;19.90;3.97;;;;;;;;;;4980882;23;20847;-84
2022/03/27 14:46:02;;;;;;;23.05;4.30;;;;;;;;;;4961086;28;20035;-84
2022/03/27 14:48:28;;;;;;;19.17;4.13;;;;;;;;;;4948859;28;20582;-83
2022/03/27 14:50:54;;;;;;;20.20;3.80;;;;;;;;;;4958790;28;20027;-85
2022/03/27 14:53:20;;;;;;;18.20;4.45;;;;;;;;;;4955799;28;20363;-83
2022/03/27 14:55:59;;;;;;;17.55;4.43;;;;;;;;;;4954525;28;20757;-83